createdAt,value
2018-02-01T00:02:39.000Z,991.515
2018-02-01T00:12:39.000Z,991.593
2018-02-01T00:22:39.000Z,991.531
2018-02-01T00:32:39.000Z,991.445
2018-02-01T00:42:39.000Z,991.454
2018-02-01T00:52:39.000Z,991.468
2018-02-01T01:02:39.000Z,991.491
2018-02-01T01:12:39.000Z,991.5
2018-02-01T01:22:39.000Z,991.476
2018-02-01T01:32:39.000Z,991.566
2018-02-01T01:42:39.000Z,991.506
2018-02-01T01:52:39.000Z,991.397
2018-02-01T02:02:39.000Z,991.334
2018-02-01T02:12:39.000Z,991.35
2018-02-01T02:22:39.000Z,991.19
2018-02-01T02:32:39.000Z,991.1
2018-02-01T02:42:39.000Z,990.96
2018-02-01T02:52:39.000Z,990.973
2018-02-01T03:02:39.000Z,990.856
2018-02-01T03:12:39.000Z,990.842
2018-02-01T03:22:39.000Z,990.933
2018-02-01T03:32:39.000Z,990.952
2018-02-01T03:42:39.000Z,990.993
2018-02-01T03:52:39.000Z,991.123
2018-02-01T04:02:39.000Z,991.02
2018-02-01T04:12:39.000Z,991.025
2018-02-01T04:22:39.000Z,991.035
2018-02-01T04:32:39.000Z,990.958
2018-02-01T04:42:39.000Z,990.875
2018-02-01T04:52:39.000Z,990.904
2018-02-01T05:02:39.000Z,990.961
2018-02-01T05:12:39.000Z,991.043
2018-02-01T05:22:39.000Z,991.015
2018-02-01T05:32:39.000Z,990.933
2018-02-01T05:42:39.000Z,990.949
2018-02-01T05:52:39.000Z,990.943
2018-02-01T06:02:39.000Z,990.962
2018-02-01T06:12:39.000Z,990.905
2018-02-01T06:22:39.000Z,991.069
2018-02-01T06:32:39.000Z,991.071
2018-02-01T06:42:39.000Z,991.07
2018-02-01T06:52:40.000Z,990.989
2018-02-01T07:02:40.000Z,990.964
2018-02-01T07:12:40.000Z,991.045
2018-02-01T07:22:40.000Z,991.123
2018-02-01T07:32:40.000Z,991.229
2018-02-01T07:42:40.000Z,991.253
2018-02-01T07:52:40.000Z,991.281
2018-02-01T08:02:40.000Z,991.254
2018-02-01T08:12:40.000Z,991.178
2018-02-01T08:22:40.000Z,991.243
2018-02-01T08:32:40.000Z,991.298
2018-02-01T08:42:40.000Z,991.26
2018-02-01T08:52:40.000Z,991.395
2018-02-01T09:02:40.000Z,991.414
2018-02-01T09:12:40.000Z,991.483
2018-02-01T09:22:40.000Z,991.44
2018-02-01T09:32:40.000Z,991.368
2018-02-01T09:42:40.000Z,991.44
2018-02-01T09:52:40.000Z,991.418
2018-02-01T10:02:40.000Z,991.573
2018-02-01T10:12:40.000Z,991.551
2018-02-01T10:22:40.000Z,991.546
2018-02-01T10:32:40.000Z,991.416
2018-02-01T10:42:40.000Z,991.437
2018-02-01T10:52:40.000Z,991.47
2018-02-01T11:02:40.000Z,991.439
2018-02-01T11:02:48.000Z,991.456
2018-02-01T11:12:47.000Z,991.452
2018-02-01T11:22:47.000Z,991.542
2018-02-01T11:32:47.000Z,991.448
2018-02-01T11:42:47.000Z,991.444
2018-02-01T11:52:47.000Z,991.444
2018-02-01T12:02:47.000Z,991.42
2018-02-01T12:12:47.000Z,991.318
2018-02-01T12:22:47.000Z,991.217
2018-02-01T12:32:47.000Z,991.172
2018-02-01T12:42:47.000Z,991.109
2018-02-01T12:52:47.000Z,991.038
2018-02-01T13:02:48.000Z,990.919
2018-02-01T13:12:48.000Z,990.975
2018-02-01T13:22:48.000Z,991.007
2018-02-01T13:32:48.000Z,991.015
2018-02-01T13:42:48.000Z,991.091
2018-02-01T13:52:48.000Z,991.104
2018-02-01T14:02:48.000Z,991.002
2018-02-01T14:12:48.000Z,990.931
2018-02-01T14:22:48.000Z,990.845
2018-02-01T14:32:48.000Z,990.896
2018-02-01T14:42:48.000Z,991.017
2018-02-01T14:52:48.000Z,991.097
2018-02-01T15:02:48.000Z,991.129
2018-02-01T15:12:48.000Z,991.024
2018-02-01T15:22:48.000Z,991.039
2018-02-01T15:32:48.000Z,991.066
2018-02-01T15:42:48.000Z,991.153
2018-02-01T15:52:48.000Z,991.332
2018-02-01T16:02:48.000Z,991.458
2018-02-01T16:12:48.000Z,991.472
2018-02-01T16:22:48.000Z,991.573
2018-02-01T16:32:48.000Z,991.693
2018-02-01T16:42:48.000Z,991.889
2018-02-01T16:52:48.000Z,991.938
2018-02-01T17:02:48.000Z,992.028
2018-02-01T17:12:48.000Z,992.278
2018-02-01T17:22:48.000Z,992.37
2018-02-01T17:32:48.000Z,992.436
2018-02-01T17:42:48.000Z,992.449
2018-02-01T17:52:48.000Z,992.536
2018-02-01T18:02:48.000Z,992.599
2018-02-01T18:12:48.000Z,992.637
2018-02-01T18:22:48.000Z,992.745
2018-02-01T18:32:48.000Z,992.853
2018-02-01T18:42:48.000Z,992.871
2018-02-01T18:52:48.000Z,992.868
2018-02-01T19:02:48.000Z,992.94
2018-02-01T19:12:48.000Z,993.024
2018-02-01T19:22:48.000Z,992.988
2018-02-01T19:32:48.000Z,993.016
2018-02-01T19:42:48.000Z,992.967
2018-02-01T19:52:48.000Z,992.926
2018-02-01T20:02:48.000Z,992.952
2018-02-01T20:12:48.000Z,992.908
2018-02-01T20:22:48.000Z,992.84
2018-02-01T20:32:48.000Z,992.837
2018-02-01T20:42:48.000Z,992.768
2018-02-01T20:52:48.000Z,992.814
2018-02-01T21:02:48.000Z,992.831
2018-02-01T21:12:48.000Z,992.924
2018-02-01T21:22:49.000Z,992.927
2018-02-01T21:32:49.000Z,992.892
2018-02-01T21:42:49.000Z,992.871
2018-02-01T21:52:49.000Z,992.899
2018-02-01T22:02:49.000Z,992.89
2018-02-01T22:12:50.000Z,992.805
2018-02-01T22:22:49.000Z,992.82
2018-02-01T22:32:49.000Z,992.895
2018-02-01T22:42:49.000Z,992.972
2018-02-01T22:52:49.000Z,992.945
2018-02-01T23:02:49.000Z,992.958
2018-02-01T23:12:49.000Z,992.937
2018-02-01T23:22:49.000Z,992.942
2018-02-01T23:32:49.000Z,992.941
2018-02-01T23:52:49.000Z,992.736
